This is the latest recevied weather packets stored in our database for station/object DH4SBM. If no packets are shown the sender has not sent any weather packets the latest 10 day(s).
| Time | Temp. | Humidity | Pressure | Rain* | Wind** | Luminosity | Snow |
|---|---|---|---|---|---|---|---|
| 1777702537 | 11.67° C | 69% | 1024.5 hPa | 0 mm | - | 37 W/m² | - |
| 1777701937 | 11.11° C | 69% | 1024.5 hPa | 0 mm | - | 309 W/m² | - |
| 1777701337 | 10.56° C | 70% | 1024.5 hPa | 0 mm | - | 279 W/m² | - |
| 1777700737 | 10.56° C | 70% | 1024.3 hPa | 0 mm | - | 255 W/m² | - |
| 1777700137 | 10.56° C | 69% | 1024.4 hPa | 0 mm | - | 223 W/m² | - |
| 1777699537 | 10.56° C | 68% | 1024.5 hPa | 0 mm | - | 195 W/m² | - |
| 1777698937 | 10.56° C | 68% | 1024.5 hPa | 0 mm | - | 171 W/m² | - |
| 1777698337 | 10° C | 69% | 1024.5 hPa | 0 mm | - | 142 W/m² | - |
| 1777697737 | 8.89° C | 73% | 1024.6 hPa | 0 mm | - | 116 W/m² | - |
| 1777697137 | 7.78° C | 75% | 1024.6 hPa | 0 mm | - | 93 W/m² | - |
| 1777696537 | 7.78° C | 74% | 1024.5 hPa | 0 mm | - | 69 W/m² | - |
| 1777695937 | 7.78° C | 74% | 1024.5 hPa | 0 mm | - | 14 W/m² | - |
| 1777695337 | 7.78° C | 73% | 1024.4 hPa | 0 mm | - | 9 W/m² | - |
| 1777694737 | 8.33° C | 72% | 1024.3 hPa | 0 mm | - | 5 W/m² | - |
| 1777694137 | 8.89° C | 70% | 1024.3 hPa | 0 mm | - | 0 W/m² | - |
| 1777693537 | 8.89° C | 69% | 1024.3 hPa | 0 mm | - | 0 W/m² | - |
| 1777692937 | 8.89° C | 70% | 1024 hPa | 0 mm | - | 0 W/m² | - |
| 1777692337 | 8.33° C | 71% | 1024.1 hPa | 0 mm | - | 0 W/m² | - |
| 1777691737 | 8.33° C | 71% | 1024.1 hPa | 0 mm | - | 0 W/m² | - |
| 1777691137 | 8.33° C | 71% | 1024.1 hPa | 0 mm | - | 0 W/m² | - |
| 1777690537 | 8.89° C | 69% | 1024.3 hPa | 0 mm | - | 0 W/m² | - |
| 1777689937 | 9.44° C | 66% | 1024.3 hPa | 0 mm | - | 0 W/m² | - |
| 1777689337 | 11.11° C | 61% | 1024.5 hPa | 0 mm | - | 0 W/m² | - |
| 1777688737 | 11.67° C | 58% | 1024.6 hPa | 0 mm | - | 0 W/m² | - |
| 1777688137 | 11.67° C | 58% | 1024.7 hPa | 0 mm | - | 0 W/m² | - |
* Rain latest hour (hover to see other rain measurements)
** Current wind speed in m/s (hover to see current wind gust speed)